This is the latest recevied weather packets stored in our database for station/object SK6WX-13. If no packets are shown the sender has not sent any weather packets the latest 1 day(s).
| Time | Temp. | Humidity | Pressure | Rain* | Wind** | Luminosity | Snow |
|---|---|---|---|---|---|---|---|
| 1778175004 | 13.33° C | 27% | 1016 hPa | 0 mm | - | - | - |
| 1778174105 | 13.33° C | 27% | 1015.9 hPa | 0 mm | - | - | - |
| 1778173205 | 14.44° C | 25% | 1016 hPa | 0 mm | - | - | - |
| 1778172305 | 17.22° C | 24% | 1016.3 hPa | 0 mm | - | - | - |
| 1778171403 | 14.44° C | 25% | 1015.9 hPa | 0 mm | - | - | - |
| 1778170508 | 14.44° C | 25% | 1015.7 hPa | 0 mm | - | - | - |
| 1778169604 | 14.44° C | 25% | 1015.6 hPa | 0 mm | - | - | - |
| 1778168708 | 14.44° C | 25% | 1015.6 hPa | 0 mm | - | - | - |
| 1778167803 | 15° C | 25% | 1015.6 hPa | 0 mm | - | - | - |
| 1778166905 | 17.22° C | 24% | 1015.9 hPa | 0 mm | - | - | - |
| 1778166005 | 18.89° C | 23% | 1016 hPa | 0 mm | - | - | - |
| 1778165105 | 18.33° C | 23% | 1016 hPa | 0 mm | - | - | - |
| 1778164204 | 18.33° C | 23% | 1015.9 hPa | 0 mm | - | - | - |
| 1778163305 | 17.78° C | 24% | 1015.9 hPa | 0 mm | - | - | - |
| 1778162404 | 17.78° C | 24% | 1016 hPa | 0 mm | - | - | - |
| 1778161504 | 18.33° C | 23% | 1016.1 hPa | 0 mm | - | - | - |
| 1778160605 | 18.89° C | 23% | 1016.3 hPa | 0 mm | - | - | - |
| 1778159705 | 18.33° C | 23% | 1016.2 hPa | 0 mm | - | - | - |
| 1778158805 | 18.89° C | 23% | 1016.3 hPa | 0 mm | - | - | - |
| 1778157905 | 18.89° C | 23% | 1016.5 hPa | 0 mm | - | - | - |
| 1778157005 | 17.78° C | 24% | 1016.2 hPa | 0 mm | - | - | - |
| 1778156105 | 15.56° C | 25% | 1016 hPa | 0 mm | - | - | - |
| 1778155205 | 16.11° C | 24% | 1016.1 hPa | 0 mm | - | - | - |
| 1778154308 | 17.22° C | 24% | 1015.9 hPa | 0 mm | - | - | - |
| 1778153404 | 19.44° C | 23% | 1016.3 hPa | 0 mm | - | - | - |
* Rain latest hour (hover to see other rain measurements)
** Current wind speed in m/s (hover to see current wind gust speed)